Burwell, United Kingdom
Current Conditions -  °F | °C
As of 9:50 PM on Thursday 27 Nov 2014 (Local Time) from EGXS Reporting Station
Broken Clouds Broken Clouds  
Wind Chill: 50°   Ceiling: 6000
Heat Index: 50°   Visibility: 3mi
Dew Point: 48°   Wind: 6mph
Humidity: 94%   Direction: 70°ENE
Pressure: 29.62"   Gusts: NA
Location:  53.29°N, 0.03°E
Report Text: EGXS 272150Z AUTO 07005KT 5000 // BKN060/// 10/09 Q1003
Loading
Personal Weather Stations






























Interactive Weather Map New forecast layout! Learn more

10-Day Weather Forecast

Advertisements
Track Severe Weather on mobile